Time;durP1;ratioP1;P1;durP2;ratioP2;P2;SDS_P1;SDS_P2;PMS_P1;PMS_P2;Temp;Humidity;BMP_temperature;BMP_pressure;BME280_temperature;BME280_humidity;BME280_pressure;Samples;Min_cycle;Max_cycle;Signal;HPM_P1;HPM_P2
2022/01/19 00:00:22;;;;;;;26.60;10.83;;;5.60;99.90;;;;;;5018572;28;20472;-62
2022/01/19 00:02:49;;;;;;;29.80;10.43;;;5.60;99.90;;;;;;5000084;28;20221;-62
2022/01/19 00:05:16;;;;;;;23.83;10.17;;;5.60;99.90;;;;;;4996269;28;20229;-62
2022/01/19 00:07:43;;;;;;;22.67;10.47;;;5.60;99.90;;;;;;5004601;28;20413;-63
2022/01/19 00:10:15;;;;;;;25.73;11.10;;;5.50;99.90;;;;;;5006228;28;20237;-63
2022/01/19 00:12:45;;;;;;;27.70;12.50;;;5.50;99.90;;;;;;5006174;28;20291;-63
2022/01/19 00:15:12;;;;;;;23.50;10.33;;;5.50;99.90;;;;;;5013768;28;20706;-63
2022/01/19 00:17:41;;;;;;;24.23;10.43;;;5.50;99.90;;;;;;5016490;28;20205;-63
2022/01/19 00:20:09;;;;;;;24.30;10.23;;;5.50;99.90;;;;;;5016817;28;20208;-64
2022/01/19 00:22:37;;;;;;;21.27;10.00;;;5.50;99.90;;;;;;4990603;28;20571;-64
2022/01/19 00:25:06;;;;;;;23.50;10.47;;;5.50;99.90;;;;;;4999727;28;20229;-64
2022/01/19 00:27:34;;;;;;;30.13;11.57;;;5.50;99.90;;;;;;5001926;28;20208;-64
2022/01/19 00:30:01;;;;;;;24.37;10.50;;;5.50;99.90;;;;;;5018038;28;20727;-64
2022/01/19 00:32:29;;;;;;;24.73;9.73;;;5.50;99.90;;;;;;5016120;28;20290;-64
2022/01/19 00:34:57;;;;;;;23.27;10.07;;;5.50;99.90;;;;;;5007609;28;20228;-64
2022/01/19 00:37:24;;;;;;;32.63;11.23;;;5.50;99.90;;;;;;5003970;28;20216;-63
2022/01/19 00:39:52;;;;;;;26.67;10.30;;;5.50;99.90;;;;;;5007027;28;20244;-63
2022/01/19 00:42:19;;;;;;;23.83;10.77;;;5.50;99.90;;;;;;4987786;28;20212;-63
2022/01/19 00:44:47;;;;;;;23.60;10.23;;;5.50;99.90;;;;;;5020112;28;20220;-63
2022/01/19 00:47:15;;;;;;;20.50;9.90;;;5.40;99.90;;;;;;5014967;28;21589;-63
2022/01/19 00:49:42;;;;;;;23.77;10.57;;;5.40;99.90;;;;;;5014970;28;20205;-63
2022/01/19 00:52:11;;;;;;;26.37;10.23;;;5.40;99.90;;;;;;5010448;28;20205;-63
2022/01/19 00:54:39;;;;;;;25.13;11.40;;;5.40;99.90;;;;;;4994930;28;20259;-63
2022/01/19 00:57:07;;;;;;;22.23;10.77;;;5.40;99.90;;;;;;5010329;28;20216;-63
2022/01/19 00:59:34;;;;;;;25.27;10.87;;;5.40;99.90;;;;;;5008432;28;20729;-63
2022/01/19 01:02:02;;;;;;;22.00;10.57;;;5.40;99.90;;;;;;5005118;28;20237;-63
2022/01/19 01:04:30;;;;;;;25.43;11.37;;;5.40;99.90;;;;;;5015498;28;20232;-62
2022/01/19 01:06:57;;;;;;;25.53;10.47;;;5.40;99.90;;;;;;5017208;28;20766;-62
2022/01/19 01:09:26;;;;;;;21.83;10.77;;;5.40;99.90;;;;;;4996519;28;20341;-62
2022/01/19 01:12:00;;;;;;;27.37;11.10;;;5.30;99.90;;;;;;5002770;28;20206;-62
2022/01/19 01:19:57;;;;;;;26.80;11.57;;;5.30;99.90;;;;;;4996025;28;20251;-63
2022/01/19 01:22:25;;;;;;;26.17;11.07;;;5.30;99.90;;;;;;5025570;28;20323;-62
2022/01/19 01:24:53;;;;;;;32.57;13.57;;;5.30;99.90;;;;;;4997542;28;20238;-62
2022/01/19 01:27:20;;;;;;;27.63;11.83;;;5.30;99.90;;;;;;4998137;28;20232;-63
2022/01/19 01:29:48;;;;;;;29.43;12.37;;;5.30;99.90;;;;;;5001613;28;20295;-63
2022/01/19 01:32:15;;;;;;;28.57;12.30;;;5.20;99.90;;;;;;4997403;28;20208;-63
2022/01/19 01:34:42;;;;;;;29.10;11.50;;;5.30;99.90;;;;;;5028519;28;20576;-63
2022/01/19 01:37:10;;;;;;;23.93;11.87;;;5.30;99.90;;;;;;5019244;28;20848;-63
2022/01/19 01:39:37;;;;;;;27.57;11.20;;;5.30;99.90;;;;;;4993241;28;20329;-63
2022/01/19 01:42:11;;;;;;;25.23;11.23;;;5.30;99.90;;;;;;5008570;28;20839;-63
2022/01/19 01:44:40;;;;;;;24.07;11.07;;;5.30;99.90;;;;;;5014205;28;20250;-63
2022/01/19 01:47:08;;;;;;;31.87;12.77;;;5.30;99.90;;;;;;5015272;28;20683;-63
2022/01/19 01:53:16;;;;;;;29.70;12.17;;;5.30;99.90;;;;;;5013650;28;20220;-62
2022/01/19 01:55:18;;;;;;;29.57;11.00;;;5.30;99.90;;;;;;4998805;28;20255;-63
2022/01/19 01:57:46;;;;;;;30.50;12.67;;;5.30;99.90;;;;;;4996433;28;20264;-63
2022/01/19 02:00:16;;;;;;;26.80;11.50;;;5.30;99.90;;;;;;5015690;28;20219;-63
2022/01/19 02:02:47;;;;;;;26.87;11.10;;;5.20;99.90;;;;;;4995698;28;20205;-63
2022/01/19 02:05:14;;;;;;;23.97;10.23;;;5.20;99.90;;;;;;5019137;28;20205;-63
2022/01/19 02:07:48;;;;;;;23.23;10.70;;;5.20;99.90;;;;;;5002103;28;20205;-62
2022/01/19 02:10:30;;;;;;;25.03;11.00;;;5.30;99.90;;;;;;5001329;28;20217;-63
2022/01/19 02:16:11;;;;;;;28.87;11.40;;;5.30;99.90;;;;;;4940470;28;20295;-64
2022/01/19 02:21:44;;;;;;;22.73;10.77;;;5.20;99.90;;;;;;4993883;28;20268;-64
2022/01/19 02:24:16;;;;;;;25.97;9.83;;;5.20;99.90;;;;;;5007930;28;20351;-63
2022/01/19 02:27:02;;;;;;;27.00;10.27;;;5.30;99.90;;;;;;5016989;28;20592;-63
2022/01/19 02:40:49;;;;;;;18.60;8.97;;;5.30;99.90;;;;;;5000487;28;20291;-62
2022/01/19 02:43:22;;;;;;;16.53;8.23;;;5.30;99.90;;;;;;5019476;28;20769;-63
2022/01/19 02:51:19;;;;;;;22.77;8.53;;;5.20;99.90;;;;;;5008003;28;20865;-63
2022/01/19 02:53:48;;;;;;;21.27;8.90;;;5.20;99.90;;;;;;4999456;28;20210;-62
2022/01/19 02:56:21;;;;;;;23.53;9.03;;;5.30;99.90;;;;;;5005448;28;20232;-63
2022/01/19 02:58:53;;;;;;;16.47;8.53;;;5.30;99.90;;;;;;5027410;28;20243;-62
2022/01/19 03:09:35;;;;;;;23.07;8.90;;;5.30;99.90;;;;;;5005139;28;20292;-63
2022/01/19 03:12:02;;;;;;;24.13;9.40;;;5.30;99.90;;;;;;5004558;28;20210;-63
2022/01/19 03:14:29;;;;;;;17.07;8.67;;;5.30;99.90;;;;;;5016924;28;20333;-64
2022/01/19 03:16:56;;;;;;;24.07;8.80;;;5.30;99.90;;;;;;5005193;28;20324;-63
2022/01/19 03:19:26;;;;;;;20.23;9.73;;;5.20;99.90;;;;;;5015315;28;20259;-63
2022/01/19 03:21:53;;;;;;;23.10;9.10;;;5.20;99.90;;;;;;5002259;28;20216;-63
2022/01/19 03:24:20;;;;;;;22.57;9.27;;;5.30;99.90;;;;;;5016718;28;20224;-62
2022/01/19 03:26:48;;;;;;;19.23;9.73;;;5.30;99.90;;;;;;4994755;28;20221;-62
2022/01/19 03:29:16;;;;;;;22.17;9.07;;;5.30;99.90;;;;;;4997839;28;20212;-62
2022/01/19 03:31:44;;;;;;;23.93;9.77;;;5.30;99.90;;;;;;5014512;28;20205;-62
2022/01/19 03:34:12;;;;;;;17.73;9.23;;;5.30;99.90;;;;;;4996821;28;20638;-62
2022/01/19 03:36:39;;;;;;;19.13;8.00;;;5.30;99.90;;;;;;5007077;28;20221;-62
2022/01/19 03:39:06;;;;;;;24.37;9.53;;;5.30;99.90;;;;;;5004181;28;20420;-62
2022/01/19 03:41:34;;;;;;;17.27;8.30;;;5.30;99.90;;;;;;5011139;28;20210;-63
2022/01/19 03:44:02;;;;;;;31.40;8.40;;;5.20;99.90;;;;;;5012556;28;20210;-63
2022/01/19 03:46:33;;;;;;;24.80;9.73;;;5.30;99.90;;;;;;5003910;28;20932;-63
2022/01/19 03:49:09;;;;;;;22.07;10.37;;;5.20;99.90;;;;;;5001679;28;20213;-63
2022/01/19 03:51:37;;;;;;;36.80;12.90;;;5.20;99.90;;;;;;5009637;28;20842;-63
2022/01/19 03:54:05;;;;;;;34.53;15.13;;;5.30;99.90;;;;;;5021229;28;20749;-62
2022/01/19 03:56:32;;;;;;;36.87;16.43;;;5.30;99.90;;;;;;5000393;28;21165;-62
2022/01/19 03:58:59;;;;;;;35.83;17.37;;;5.30;99.90;;;;;;5012571;28;20217;-62
2022/01/19 04:01:28;;;;;;;37.93;18.20;;;5.30;99.90;;;;;;5001522;28;20225;-63
2022/01/19 04:04:26;;;;;;;33.47;17.27;;;5.30;99.90;;;;;;5023048;28;20205;-63
2022/01/19 04:06:58;;;;;;;29.70;17.37;;;5.30;99.90;;;;;;5017261;28;20208;-63
2022/01/19 04:09:26;;;;;;;28.57;15.57;;;5.30;99.90;;;;;;5006823;28;21125;-63
2022/01/19 04:11:53;;;;;;;30.73;15.93;;;5.30;99.90;;;;;;5015675;28;20202;-63
2022/01/19 04:14:28;;;;;;;31.93;15.77;;;5.30;99.90;;;;;;4997227;28;20300;-63
2022/01/19 04:16:59;;;;;;;30.47;14.77;;;5.20;99.90;;;;;;5007784;28;21033;-63
2022/01/19 04:19:29;;;;;;;29.40;15.73;;;5.20;99.90;;;;;;5020029;28;20206;-63
2022/01/19 04:21:58;;;;;;;33.87;14.63;;;5.20;99.90;;;;;;5015296;28;20209;-63
2022/01/19 04:24:26;;;;;;;25.07;14.77;;;5.30;99.90;;;;;;5007096;28;20210;-63
2022/01/19 04:29:39;;;;;;;28.67;15.00;;;5.20;99.90;;;;;;4999692;28;20233;-62
2022/01/19 04:32:12;;;;;;;30.40;14.87;;;5.20;99.90;;;;;;5002373;28;20292;-62
2022/01/19 04:34:41;;;;;;;29.30;14.30;;;5.30;99.90;;;;;;5015523;28;20344;-63
2022/01/19 04:48:18;;;;;;;28.33;13.43;;;5.30;99.90;;;;;;5006911;28;20214;-63
2022/01/19 05:02:15;;;;;;;31.87;13.20;;;5.20;99.90;;;;;;4987152;28;20259;-63
2022/01/19 05:04:52;;;;;;;29.20;13.17;;;5.30;99.90;;;;;;5023842;28;20293;-63
2022/01/19 05:07:24;;;;;;;30.83;12.67;;;5.20;99.90;;;;;;5003029;28;20295;-64
2022/01/19 05:10:00;;;;;;;30.17;12.33;;;5.20;99.90;;;;;;4993587;28;20311;-63
2022/01/19 05:15:12;;;;;;;23.87;12.73;;;5.20;99.90;;;;;;4998761;28;20233;-64
2022/01/19 05:17:39;;;;;;;26.43;12.40;;;5.10;99.90;;;;;;4994122;28;20773;-63
2022/01/19 05:20:10;;;;;;;23.70;13.33;;;5.10;99.90;;;;;;5025751;28;20316;-63
2022/01/19 05:22:37;;;;;;;34.17;12.33;;;5.20;99.90;;;;;;5018368;28;20248;-64
2022/01/19 05:25:05;;;;;;;30.87;13.17;;;5.10;99.90;;;;;;5012504;28;20970;-63
2022/01/19 05:27:33;;;;;;;22.13;11.67;;;5.10;99.90;;;;;;5005943;28;20649;-64
2022/01/19 05:30:00;;;;;;;25.63;12.67;;;5.10;99.90;;;;;;5034319;28;20210;-63
2022/01/19 05:32:27;;;;;;;27.73;11.70;;;5.10;99.90;;;;;;4993404;28;20233;-63
2022/01/19 05:34:54;;;;;;;27.93;12.93;;;5.10;99.90;;;;;;5015348;28;20212;-63
2022/01/19 05:37:22;;;;;;;22.13;11.67;;;5.10;99.90;;;;;;4991749;28;20225;-63
2022/01/19 05:39:49;;;;;;;24.27;11.27;;;5.10;99.90;;;;;;5017449;28;20209;-64
2022/01/19 05:42:16;;;;;;;26.43;11.80;;;5.00;99.90;;;;;;5014332;28;20205;-63
2022/01/19 05:44:44;;;;;;;25.33;11.80;;;5.00;99.90;;;;;;5017867;28;20267;-63
2022/01/19 05:47:12;;;;;;;30.90;11.90;;;5.00;99.90;;;;;;5009034;28;20740;-63
2022/01/19 05:49:39;;;;;;;28.70;11.67;;;4.90;99.90;;;;;;5008847;28;20945;-62
2022/01/19 05:52:08;;;;;;;26.70;12.47;;;4.90;99.90;;;;;;4988242;28;20330;-62
2022/01/19 05:54:36;;;;;;;28.83;13.00;;;4.80;99.90;;;;;;5003629;28;20233;-64
2022/01/19 05:57:04;;;;;;;24.27;12.67;;;4.80;99.90;;;;;;5006803;28;21627;-62
2022/01/19 05:59:31;;;;;;;29.20;13.10;;;4.70;99.90;;;;;;4987776;28;20858;-62
2022/01/19 06:01:58;;;;;;;26.60;12.23;;;4.70;99.90;;;;;;5011584;28;20237;-62
2022/01/19 06:04:26;;;;;;;26.17;12.40;;;4.60;99.90;;;;;;5002708;28;20294;-62
2022/01/19 06:06:55;;;;;;;29.23;11.97;;;4.60;99.90;;;;;;4996981;28;20226;-62
2022/01/19 06:09:33;;;;;;;24.33;11.10;;;4.50;99.90;;;;;;5015692;28;20264;-62
2022/01/19 06:12:04;;;;;;;25.23;11.70;;;4.50;99.90;;;;;;5008009;28;21298;-63
2022/01/19 06:14:32;;;;;;;27.63;11.50;;;4.50;99.90;;;;;;5005779;28;20217;-63
2022/01/19 06:17:00;;;;;;;25.37;12.13;;;4.50;99.90;;;;;;5007803;28;21604;-63
2022/01/19 06:19:27;;;;;;;27.27;12.63;;;4.40;99.90;;;;;;4995940;28;20271;-63
2022/01/19 06:21:54;;;;;;;30.90;11.10;;;4.40;99.90;;;;;;4992630;28;20312;-62
2022/01/19 06:24:22;;;;;;;25.50;11.87;;;4.40;99.90;;;;;;5015429;28;20225;-62
2022/01/19 06:26:49;;;;;;;33.83;13.30;;;4.40;99.90;;;;;;4997668;28;20243;-63
2022/01/19 06:29:17;;;;;;;27.00;12.23;;;4.40;99.90;;;;;;5011426;28;20229;-62
2022/01/19 06:31:44;;;;;;;23.50;11.90;;;4.40;99.90;;;;;;5026619;28;20312;-62
2022/01/19 06:34:11;;;;;;;30.60;13.33;;;4.50;99.90;;;;;;5003904;28;20958;-63
2022/01/19 06:36:38;;;;;;;28.73;12.30;;;4.50;99.90;;;;;;5010464;28;20363;-62
2022/01/19 06:39:05;;;;;;;30.77;12.43;;;4.40;99.90;;;;;;5005119;28;20290;-62
2022/01/19 06:41:33;;;;;;;31.67;13.50;;;4.40;99.90;;;;;;5014361;28;20225;-62
2022/01/19 06:44:00;;;;;;;27.57;12.93;;;4.40;99.90;;;;;;5012082;28;20884;-62
2022/01/19 06:46:28;;;;;;;31.63;14.87;;;4.50;99.90;;;;;;5017593;28;20217;-62
2022/01/19 06:48:55;;;;;;;30.70;14.40;;;4.50;99.90;;;;;;5012065;28;22144;-62
2022/01/19 06:51:23;;;;;;;38.23;16.67;;;4.60;99.90;;;;;;4993798;28;20840;-63
2022/01/19 06:53:50;;;;;;;37.37;16.97;;;4.50;99.90;;;;;;5021351;28;20221;-62
2022/01/19 06:56:17;;;;;;;35.60;17.83;;;4.60;99.90;;;;;;5013135;28;20234;-63
2022/01/19 06:58:44;;;;;;;31.97;18.30;;;4.60;99.90;;;;;;5024408;28;20217;-63
2022/01/19 07:01:11;;;;;;;40.37;18.73;;;4.70;99.90;;;;;;5015546;28;20227;-63
2022/01/19 07:03:39;;;;;;;42.77;20.07;;;4.70;99.90;;;;;;5013991;28;20210;-62
2022/01/19 07:06:07;;;;;;;40.57;17.53;;;4.80;99.90;;;;;;4994095;28;20237;-63
2022/01/19 07:09:16;;;;;;;48.40;19.50;;;4.80;99.90;;;;;;5062065;22;21313;-95
2022/01/19 07:11:48;;;;;;;40.07;18.00;;;4.80;99.90;;;;;;5033127;28;20728;-96
2022/01/19 07:14:39;;;;;;;40.23;18.53;;;5.50;99.90;;;;;;5025988;28;20865;-95
2022/01/19 07:17:35;;;;;;;39.87;18.67;;;4.80;99.90;;;;;;5049530;28;20225;-96
2022/01/19 07:24:58;;;;;;;37.63;19.10;;;4.80;99.90;;;;;;4855553;29;20228;-96
2022/01/19 07:34:20;;;;;;;49.30;21.07;;;4.90;99.90;;;;;;5055058;28;20619;-95
2022/01/19 07:39:15;;;;;;;43.90;21.93;;;4.90;99.90;;;;;;5015861;28;20229;-61
2022/01/19 07:41:42;;;;;;;41.83;22.23;;;4.90;99.90;;;;;;5038834;28;20199;-63
2022/01/19 07:44:09;;;;;;;45.87;22.20;;;4.90;99.90;;;;;;5030911;28;20215;-62
2022/01/19 07:46:38;;;;;;;40.43;22.10;;;4.90;99.90;;;;;;5033877;28;20332;-62
2022/01/19 07:49:05;;;;;;;45.30;21.97;;;4.90;99.90;;;;;;5034221;28;20216;-61
2022/01/19 07:51:32;;;;;;;46.03;22.20;;;5.00;99.90;;;;;;5038251;28;20214;-61
2022/01/19 07:53:59;;;;;;;41.60;21.63;;;4.90;99.90;;;;;;5017363;28;20225;-61
2022/01/19 07:56:26;;;;;;;42.70;21.30;;;4.90;99.90;;;;;;5045627;28;20228;-61
2022/01/19 07:58:53;;;;;;;47.73;21.77;;;5.00;99.90;;;;;;5033888;28;20465;-61
2022/01/19 08:01:21;;;;;;;44.23;21.17;;;5.00;99.90;;;;;;5048016;28;20814;-61
2022/01/19 08:03:49;;;;;;;39.10;18.70;;;5.00;99.90;;;;;;5037626;28;20212;-61
2022/01/19 08:06:16;;;;;;;33.40;19.30;;;5.00;99.90;;;;;;5015532;28;20683;-61
2022/01/19 08:08:43;;;;;;;36.23;18.83;;;5.00;99.90;;;;;;5014814;28;20198;-61
2022/01/19 08:11:10;;;;;;;37.80;19.67;;;5.10;99.90;;;;;;5025744;28;20732;-61
2022/01/19 08:13:37;;;;;;;43.60;20.00;;;5.10;99.90;;;;;;5032368;28;20642;-62
2022/01/19 08:16:05;;;;;;;43.20;20.67;;;5.10;99.90;;;;;;5029351;28;20227;-62
2022/01/19 08:18:32;;;;;;;42.23;21.23;;;5.10;99.90;;;;;;5035428;28;20235;-62
2022/01/19 08:21:01;;;;;;;37.13;20.83;;;5.10;99.90;;;;;;5036533;28;20193;-61
2022/01/19 08:23:28;;;;;;;43.97;21.23;;;5.10;99.90;;;;;;5020930;28;20225;-61
2022/01/19 08:25:55;;;;;;;40.63;21.50;;;5.10;99.90;;;;;;5025623;28;20972;-62
2022/01/19 08:28:22;;;;;;;36.80;20.23;;;5.00;99.90;;;;;;5028714;28;20219;-61
2022/01/19 08:30:49;;;;;;;39.37;20.63;;;5.10;99.90;;;;;;5057442;28;20193;-61
2022/01/19 08:33:16;;;;;;;39.60;21.27;;;5.10;99.90;;;;;;5036193;28;22948;-62
2022/01/19 08:35:43;;;;;;;41.20;20.23;;;5.10;99.90;;;;;;5026252;28;20232;-62
2022/01/19 08:38:11;;;;;;;40.07;20.50;;;5.10;99.90;;;;;;5034863;28;20232;-61
2022/01/19 08:40:39;;;;;;;44.07;20.30;;;5.10;99.90;;;;;;5019105;28;20255;-61
2022/01/19 08:43:06;;;;;;;38.17;18.97;;;5.20;99.90;;;;;;5027162;28;20233;-61
2022/01/19 08:45:35;;;;;;;40.00;19.33;;;5.20;99.90;;;;;;5037363;28;20612;-61
2022/01/19 08:48:02;;;;;;;42.10;18.17;;;5.10;99.90;;;;;;5046883;28;20193;-61
2022/01/19 08:50:29;;;;;;;30.97;16.47;;;5.10;99.90;;;;;;5034672;28;20343;-61
2022/01/19 08:52:56;;;;;;;33.47;17.57;;;5.10;99.90;;;;;;5030857;28;20293;-61
2022/01/19 08:55:28;;;;;;;32.83;17.63;;;5.10;99.90;;;;;;5029639;28;20264;-61
2022/01/19 08:57:55;;;;;;;37.77;19.23;;;5.10;99.90;;;;;;5041657;28;20225;-61
2022/01/19 09:00:23;;;;;;;35.00;17.40;;;5.10;99.90;;;;;;5031019;28;20209;-61
2022/01/19 09:02:50;;;;;;;39.50;19.00;;;5.10;99.90;;;;;;5028644;28;20322;-63
2022/01/19 09:05:18;;;;;;;41.33;20.17;;;5.00;99.90;;;;;;5030494;28;20797;-63
2022/01/19 09:07:45;;;;;;;40.70;20.50;;;5.00;99.90;;;;;;5038348;28;20202;-62
2022/01/19 09:10:14;;;;;;;37.13;19.43;;;5.00;99.90;;;;;;5042041;28;20555;-62
2022/01/19 09:12:43;;;;;;;36.30;19.30;;;5.00;99.90;;;;;;5017224;28;20706;-62
2022/01/19 09:15:13;;;;;;;34.03;20.20;;;5.00;99.90;;;;;;5039207;28;20299;-63
2022/01/19 09:17:41;;;;;;;34.00;20.03;;;4.90;99.90;;;;;;5041530;28;20260;-62
2022/01/19 09:20:09;;;;;;;38.43;19.47;;;4.90;99.90;;;;;;5050486;28;20612;-62
2022/01/19 09:22:36;;;;;;;35.27;19.73;;;4.90;99.90;;;;;;5029278;28;20299;-62
2022/01/19 09:25:06;;;;;;;31.30;17.57;;;4.90;99.90;;;;;;5035028;28;20221;-63
2022/01/19 09:27:33;;;;;;;33.87;18.90;;;4.90;99.90;;;;;;5037578;28;20213;-61
2022/01/19 09:30:02;;;;;;;36.97;19.80;;;4.90;99.90;;;;;;5025856;28;20207;-62
2022/01/19 09:32:29;;;;;;;34.17;18.27;;;4.80;99.90;;;;;;5039878;28;20200;-62
2022/01/19 09:35:04;;;;;;;36.20;20.73;;;4.80;99.90;;;;;;5034737;28;21231;-62
2022/01/19 09:37:31;;;;;;;36.43;20.30;;;4.80;99.90;;;;;;5036268;28;20232;-62
2022/01/19 09:39:58;;;;;;;32.87;19.90;;;4.90;99.90;;;;;;5031090;28;21075;-62
2022/01/19 09:42:25;;;;;;;32.30;20.13;;;4.80;99.90;;;;;;5055883;28;20262;-63
2022/01/19 09:44:53;;;;;;;34.27;18.93;;;4.80;99.90;;;;;;5019577;28;20301;-63
2022/01/19 09:47:21;;;;;;;30.47;18.50;;;4.80;99.90;;;;;;5050984;28;22181;-63
2022/01/19 09:49:48;;;;;;;34.53;19.37;;;4.80;99.90;;;;;;5034069;28;20537;-63
2022/01/19 09:52:15;;;;;;;34.53;18.70;;;4.90;99.90;;;;;;5025739;28;20209;-62
2022/01/19 09:54:42;;;;;;;30.23;18.77;;;4.80;99.90;;;;;;5031452;28;20200;-62
2022/01/19 09:57:09;;;;;;;25.60;17.43;;;4.80;99.90;;;;;;5044401;28;20224;-62
2022/01/19 09:59:36;;;;;;;27.17;17.03;;;4.80;99.90;;;;;;5035193;28;20213;-61
2022/01/19 10:02:06;;;;;;;26.40;18.00;;;4.70;99.90;;;;;;5039105;28;20259;-61
2022/01/19 10:04:37;;;;;;;24.67;18.27;;;4.70;99.90;;;;;;5033153;28;20193;-62
2022/01/19 10:07:12;;;;;;;26.87;18.70;;;4.70;99.90;;;;;;5034933;28;20229;-63
2022/01/19 10:09:54;;;;;;;30.30;18.87;;;4.70;99.90;;;;;;5032414;28;20308;-63
2022/01/19 10:18:15;;;;;;;28.17;18.67;;;4.70;99.90;;;;;;5045761;28;20316;-63
2022/01/19 10:20:45;;;;;;;30.23;18.13;;;4.80;99.90;;;;;;5045384;28;20201;-63
2022/01/19 10:23:33;;;;;;;25.73;18.40;;;4.80;99.90;;;;;;5036160;28;20209;-63
2022/01/19 10:26:01;;;;;;;25.27;17.73;;;4.80;99.90;;;;;;5035508;28;20574;-61
2022/01/19 10:28:28;;;;;;;31.20;19.77;;;4.90;99.90;;;;;;5031072;28;20291;-62
2022/01/19 10:30:55;;;;;;;30.00;20.07;;;4.80;99.90;;;;;;5020050;28;21325;-62
2022/01/19 10:33:22;;;;;;;32.27;19.53;;;4.80;99.90;;;;;;5042147;28;20205;-62
2022/01/19 10:35:51;;;;;;;31.33;20.03;;;4.80;99.90;;;;;;5036245;28;20200;-62
2022/01/19 10:38:20;;;;;;;37.73;21.03;;;4.80;99.90;;;;;;5038416;28;20227;-61
2022/01/19 10:41:12;;;;;;;31.83;22.57;;;4.80;99.90;;;;;;5030906;28;20215;-61
2022/01/19 10:43:41;;;;;;;30.80;20.50;;;4.90;99.90;;;;;;5033986;28;20209;-61
2022/01/19 10:46:27;;;;;;;30.40;20.13;;;4.90;99.90;;;;;;5027729;28;20372;-61
2022/01/19 10:49:00;;;;;;;30.63;20.77;;;4.90;99.90;;;;;;5027779;28;20668;-62
2022/01/19 10:51:33;;;;;;;30.17;21.50;;;4.90;99.90;;;;;;5047253;28;20204;-62
2022/01/19 10:54:13;;;;;;;31.60;20.40;;;5.00;99.90;;;;;;5036449;28;20201;-61
2022/01/19 10:56:41;;;;;;;32.20;20.20;;;4.90;99.90;;;;;;5035352;28;20204;-61
2022/01/19 10:59:11;;;;;;;36.40;21.13;;;4.90;99.90;;;;;;5037441;28;20700;-61
2022/01/19 11:01:43;;;;;;;35.10;20.83;;;5.00;99.90;;;;;;5033045;28;20235;-61
2022/01/19 11:04:23;;;;;;;32.70;21.17;;;5.00;99.90;;;;;;5041647;28;20205;-61
2022/01/19 11:06:53;;;;;;;35.90;21.43;;;4.90;99.90;;;;;;5037884;28;20319;-62
2022/01/19 11:09:24;;;;;;;33.83;21.17;;;5.00;99.90;;;;;;5016432;28;20254;-62
2022/01/19 11:11:53;;;;;;;34.93;20.73;;;5.00;99.90;;;;;;5033999;28;20684;-62
2022/01/19 11:14:22;;;;;;;33.63;21.63;;;5.00;99.90;;;;;;5038375;28;20208;-63
2022/01/19 11:16:52;;;;;;;31.73;20.70;;;5.00;99.90;;;;;;5031797;28;20209;-62
2022/01/19 11:19:20;;;;;;;33.53;20.67;;;5.00;99.90;;;;;;5042490;28;20579;-60
2022/01/19 11:22:16;;;;;;;31.77;20.10;;;5.00;99.90;;;;;;5036189;28;20204;-61
2022/01/19 11:25:04;;;;;;;33.17;19.70;;;5.00;99.90;;;;;;5036713;28;20284;-62
2022/01/19 11:27:38;;;;;;;36.57;20.67;;;5.10;99.90;;;;;;5039161;28;20216;-61
2022/01/19 11:30:09;;;;;;;36.23;21.17;;;5.10;99.90;;;;;;5041658;28;20304;-60
2022/01/19 11:32:37;;;;;;;38.00;22.37;;;5.10;99.90;;;;;;5029953;28;20853;-61
2022/01/19 11:35:04;;;;;;;36.60;21.37;;;5.10;99.90;;;;;;5040589;28;20211;-61
2022/01/19 11:37:38;;;;;;;39.73;21.37;;;5.10;99.90;;;;;;5036035;28;20220;-61
2022/01/19 11:40:12;;;;;;;37.60;21.33;;;5.10;99.90;;;;;;5038681;28;20219;-61
2022/01/19 11:42:40;;;;;;;35.17;20.80;;;5.10;99.90;;;;;;5041602;28;20193;-61
2022/01/19 11:45:09;;;;;;;37.97;21.97;;;5.20;99.90;;;;;;5035897;28;20205;-61
2022/01/19 11:47:38;;;;;;;36.60;20.17;;;5.20;99.90;;;;;;5030924;28;20760;-61
2022/01/19 11:50:07;;;;;;;35.30;20.17;;;5.30;99.90;;;;;;5040926;28;20321;-61
2022/01/19 11:53:08;;;;;;;42.80;22.80;;;5.30;99.90;;;;;;5043489;28;20825;-61
2022/01/19 11:55:37;;;;;;;39.53;22.33;;;5.30;99.90;;;;;;5041629;28;20204;-62
2022/01/19 11:58:17;;;;;;;36.27;21.53;;;5.30;99.90;;;;;;5034361;28;20207;-61
2022/01/19 12:00:47;;;;;;;39.00;21.70;;;5.40;99.90;;;;;;5039565;28;20212;-62
2022/01/19 12:03:23;;;;;;;43.67;23.83;;;5.30;99.90;;;;;;5035460;28;20207;-61
2022/01/19 12:05:52;;;;;;;40.23;22.13;;;5.30;99.90;;;;;;5034335;28;20197;-62
2022/01/19 12:08:30;;;;;;;38.90;22.77;;;5.40;99.90;;;;;;5049263;28;20572;-62
2022/01/19 12:11:01;;;;;;;41.17;22.63;;;5.40;99.90;;;;;;5046334;28;20779;-61
2022/01/19 12:13:54;;;;;;;41.40;22.00;;;5.40;99.90;;;;;;5055188;28;20200;-62
2022/01/19 12:16:32;;;;;;;44.50;23.50;;;5.40;99.90;;;;;;5051832;28;20286;-61
2022/01/19 12:19:03;;;;;;;38.53;22.57;;;5.40;99.90;;;;;;5032187;28;20233;-62
2022/01/19 12:21:43;;;;;;;37.00;21.57;;;5.30;99.90;;;;;;5041803;28;20564;-61
2022/01/19 12:24:30;;;;;;;47.77;24.40;;;5.30;99.90;;;;;;5051878;28;20300;-62
2022/01/19 12:27:06;;;;;;;38.93;21.73;;;5.30;99.90;;;;;;5040043;28;21018;-62
2022/01/19 12:29:42;;;;;;;38.73;23.30;;;5.20;99.90;;;;;;5044342;28;20205;-62
2022/01/19 12:32:30;;;;;;;44.97;23.83;;;5.30;99.90;;;;;;5046771;28;21022;-61
2022/01/19 12:35:07;;;;;;;44.23;22.53;;;5.30;99.90;;;;;;5006259;28;20239;-60
2022/01/19 12:37:39;;;;;;;37.53;21.30;;;5.20;99.90;;;;;;5021008;28;20316;-61
2022/01/19 12:40:41;;;;;;;36.90;22.20;;;5.30;99.90;;;;;;5011327;28;20319;-60
2022/01/19 12:43:12;;;;;;;39.73;23.10;;;5.30;99.90;;;;;;5026210;28;20219;-61
2022/01/19 12:45:47;;;;;;;44.23;23.77;;;5.30;99.90;;;;;;5030345;28;20813;-60
2022/01/19 12:48:32;;;;;;;39.17;22.63;;;5.30;99.90;;;;;;5027602;22;20235;-61
2022/01/19 12:50:59;;;;;;;44.70;23.37;;;5.30;99.90;;;;;;5006187;28;20201;-61
2022/01/19 12:53:27;;;;;;;47.30;24.03;;;5.30;99.90;;;;;;5007092;28;20230;-61
2022/01/19 12:56:01;;;;;;;46.53;23.97;;;5.30;99.90;;;;;;4998560;28;20215;-62
2022/01/19 12:58:33;;;;;;;45.93;23.57;;;5.30;99.90;;;;;;5016145;28;20324;-62
2022/01/19 13:01:02;;;;;;;49.00;23.80;;;5.30;99.90;;;;;;4997360;28;20230;-61
2022/01/19 13:03:33;;;;;;;44.67;24.83;;;5.30;99.90;;;;;;5001871;28;20285;-63
2022/01/19 13:06:04;;;;;;;46.07;23.53;;;5.20;99.90;;;;;;4989972;28;20302;-64
2022/01/19 13:08:37;;;;;;;48.97;23.87;;;5.20;99.90;;;;;;4996097;28;20217;-63
2022/01/19 13:13:49;;;;;;;41.70;23.23;;;5.20;99.90;;;;;;5007751;22;20321;-61
2022/01/19 13:16:31;;;;;;;45.80;23.53;;;5.20;99.90;;;;;;5021600;28;20288;-62
2022/01/19 13:19:03;;;;;;;48.87;24.47;;;5.20;99.90;;;;;;4983988;28;20268;-62
2022/01/19 13:21:30;;;;;;;41.70;22.63;;;5.20;99.90;;;;;;4985296;28;20343;-62
2022/01/19 13:24:01;;;;;;;47.83;23.57;;;5.30;99.90;;;;;;5007584;28;20201;-61
2022/01/19 13:26:42;;;;;;;42.53;22.67;;;5.20;99.90;;;;;;5013076;28;20216;-63
2022/01/19 13:29:28;;;;;;;54.00;25.27;;;5.20;99.90;;;;;;5025927;28;20571;-62
2022/01/19 13:32:10;;;;;;;50.27;23.63;;;5.20;99.90;;;;;;5020682;28;20205;-63
2022/01/19 13:34:53;;;;;;;42.03;24.37;;;5.10;99.90;;;;;;5006834;28;20306;-63
2022/01/19 13:37:21;;;;;;;48.63;25.03;;;5.10;99.90;;;;;;4980719;28;20226;-63
2022/01/19 13:39:59;;;;;;;47.73;26.63;;;5.10;99.90;;;;;;4997470;28;20263;-64
2022/01/19 13:42:42;;;;;;;52.17;25.17;;;5.20;99.90;;;;;;5002824;28;20206;-64
2022/01/19 13:45:18;;;;;;;47.53;26.37;;;5.20;99.90;;;;;;5027231;28;20206;-62
2022/01/19 13:48:05;;;;;;;46.30;24.57;;;5.20;99.90;;;;;;5026299;28;20202;-62
2022/01/19 13:50:33;;;;;;;51.93;24.77;;;5.20;99.90;;;;;;5006738;28;20214;-61
2022/01/19 13:53:01;;;;;;;38.93;23.03;;;5.20;99.90;;;;;;5007862;28;21026;-62
2022/01/19 13:55:29;;;;;;;53.00;25.27;;;5.20;99.90;;;;;;5011552;28;20288;-61
2022/01/19 13:58:10;;;;;;;46.17;25.87;;;5.20;99.90;;;;;;5009931;28;20221;-63
2022/01/19 14:00:50;;;;;;;48.07;24.53;;;5.20;99.90;;;;;;5011986;28;20224;-62
2022/01/19 14:03:17;;;;;;;47.67;26.37;;;5.10;99.90;;;;;;5010555;28;20233;-62
2022/01/19 14:05:47;;;;;;;52.50;25.73;;;5.10;99.90;;;;;;5005694;28;20233;-62
2022/01/19 14:08:15;;;;;;;42.33;25.07;;;5.10;99.90;;;;;;4998361;28;20547;-59
2022/01/19 14:10:47;;;;;;;47.60;25.07;;;5.20;99.90;;;;;;5010553;28;20293;-60
2022/01/19 14:13:29;;;;;;;52.80;26.57;;;5.10;99.90;;;;;;5006571;28;20232;-61
2022/01/19 14:16:19;;;;;;;52.83;25.53;;;5.10;99.90;;;;;;5014085;28;20850;-61
2022/01/19 14:19:17;;;;;;;46.47;23.93;;;5.10;99.90;;;;;;4992995;28;20257;-61
2022/01/19 14:21:55;;;;;;;53.60;25.67;;;5.10;99.90;;;;;;4985028;28;20279;-62
2022/01/19 14:24:23;;;;;;;42.80;23.80;;;5.10;99.90;;;;;;4990885;28;20230;-62
2022/01/19 14:26:51;;;;;;;49.57;24.63;;;5.10;99.90;;;;;;4980627;28;20340;-61